Time;durP1;ratioP1;P1;durP2;ratioP2;P2;SDS_P1;SDS_P2;PMS_P1;PMS_P2;Temp;Humidity;BMP_temperature;BMP_pressure;BME280_temperature;BME280_humidity;BME280_pressure;Samples;Min_cycle;Max_cycle;Signal;HPM_P1;HPM_P2
2023/01/28 00:01:52;;;;;;;50.53;15.53;;;5.00;99.90;;;;;;5045350;28;20694;-59
2023/01/28 00:04:20;;;;;;;23.67;9.60;;;5.10;99.90;;;;;;5045059;28;20829;-59
2023/01/28 00:06:47;;;;;;;48.67;14.90;;;5.10;99.90;;;;;;5073827;28;20534;-60
2023/01/28 00:09:14;;;;;;;27.77;10.70;;;;;;;;;;5060006;28;20487;-59
2023/01/28 00:11:41;;;;;;;41.13;12.60;;;;;;;;;;5047754;28;20487;-59
2023/01/28 00:14:08;;;;;;;47.83;10.90;;;;;;;;;;5049285;28;21941;-59
2023/01/28 00:16:35;;;;;;;46.83;12.90;;;4.80;99.90;;;;;;5047828;28;20491;-59
2023/01/28 00:19:01;;;;;;;32.53;11.07;;;4.80;99.90;;;;;;5050618;28;20471;-59
2023/01/28 00:21:29;;;;;;;30.67;9.23;;;4.90;99.90;;;;;;5051801;28;20475;-59
2023/01/28 00:23:56;;;;;;;45.07;14.80;;;4.80;99.90;;;;;;5049857;28;21087;-59
2023/01/28 00:26:24;;;;;;;22.67;8.70;;;4.80;99.90;;;;;;5050038;28;20475;-59
2023/01/28 00:28:51;;;;;;;51.67;15.63;;;4.30;99.90;;;;;;5041781;27;20481;-59
2023/01/28 00:31:20;;;;;;;27.63;9.43;;;4.70;99.90;;;;;;5063878;28;20503;-59
2023/01/28 00:33:49;;;;;;;55.87;14.20;;;4.70;99.90;;;;;;5055859;28;20477;-59
2023/01/28 00:36:16;;;;;;;34.87;9.10;;;4.70;99.90;;;;;;5059042;28;21034;-59
2023/01/28 00:38:49;;;;;;;47.83;12.70;;;4.60;99.90;;;;;;5049301;28;20479;-59
2023/01/28 00:41:21;;;;;;;24.37;7.90;;;4.60;99.90;;;;;;5044189;28;20921;-59
2023/01/28 00:43:48;;;;;;;54.30;14.07;;;4.60;99.90;;;;;;5082354;28;20484;-59
2023/01/28 00:46:16;;;;;;;38.17;10.00;;;4.60;99.90;;;;;;5055117;28;20475;-59
2023/01/28 00:48:44;;;;;;;43.03;12.27;;;4.50;99.90;;;;;;5050531;28;20487;-59
2023/01/28 00:51:12;;;;;;;38.60;10.00;;;4.50;99.90;;;;;;5054041;28;20490;-59
2023/01/28 00:53:39;;;;;;;45.57;10.70;;;4.50;99.90;;;;;;5054937;28;20479;-59
2023/01/28 00:56:08;;;;;;;51.57;9.83;;;;;;;;;;5055009;28;20471;-59
2023/01/28 00:58:35;;;;;;;39.00;10.67;;;4.50;99.90;;;;;;5042073;28;20482;-59
2023/01/28 01:01:08;;;;;;;39.30;9.60;;;4.50;99.90;;;;;;5071954;28;20482;-59
2023/01/28 01:03:34;;;;;;;44.77;10.37;;;4.50;99.90;;;;;;5043730;28;20479;-59
2023/01/28 01:06:01;;;;;;;64.60;12.13;;;;;;;;;;5045778;28;20475;-59
2023/01/28 01:08:33;;;;;;;49.37;9.20;;;;;;;;;;5064697;28;20481;-59
2023/01/28 01:11:00;;;;;;;45.60;10.53;;;4.60;99.90;;;;;;5059551;28;20473;-59
2023/01/28 01:13:29;;;;;;;48.00;10.10;;;4.60;99.90;;;;;;5068850;27;20675;-59
2023/01/28 01:16:02;;;;;;;82.47;14.20;;;7.30;99.90;;;;;;5064829;27;20479;-59
2023/01/28 01:18:29;;;;;;;75.73;12.03;;;;;;;;;;5053743;28;20475;-59
2023/01/28 01:20:57;;;;;;;64.43;15.23;;;4.60;99.90;;;;;;5053970;28;20504;-59
2023/01/28 01:23:24;;;;;;;34.90;8.77;;;;;;;;;;5052701;28;20483;-59
2023/01/28 01:25:51;;;;;;;88.93;14.83;;;;;;;;;;5053167;28;20871;-59
2023/01/28 01:28:19;;;;;;;42.60;9.70;;;;;;;;;;5049996;28;20895;-59
2023/01/28 01:30:47;;;;;;;40.10;10.43;;;4.60;99.90;;;;;;5050381;28;20505;-59
2023/01/28 01:33:14;;;;;;;19.60;7.33;;;;;;;;;;5048954;28;20560;-59
2023/01/28 01:35:41;;;;;;;28.67;9.30;;;;;;;;;;5047956;28;20471;-59
2023/01/28 01:38:08;;;;;;;31.87;8.60;;;;;;;;;;5055080;28;20547;-59
2023/01/28 01:40:35;;;;;;;22.80;8.67;;;4.70;99.90;;;;;;5077879;27;20805;-59
2023/01/28 01:43:02;;;;;;;25.43;9.33;;;4.60;99.90;;;;;;5045943;28;20478;-60
2023/01/28 01:45:32;;;;;;;27.33;8.43;;;4.70;99.90;;;;;;5078693;28;20507;-59
2023/01/28 01:48:03;;;;;;;23.40;9.07;;;4.70;99.90;;;;;;5057642;28;20576;-59
2023/01/28 01:50:33;;;;;;;19.67;7.57;;;;;;;;;;5041708;27;20511;-59
2023/01/28 01:53:04;;;;;;;29.73;9.73;;;4.60;99.90;;;;;;5070033;27;20483;-59
2023/01/28 01:55:34;;;;;;;17.43;7.70;;;4.50;99.90;;;;;;5073647;28;20481;-59
2023/01/28 01:58:05;;;;;;;34.50;7.10;;;4.60;99.90;;;;;;5071224;28;20477;-60
2023/01/28 02:00:32;;;;;;;21.10;8.00;;;4.60;99.90;;;;;;5056351;28;20545;-60
2023/01/28 02:03:01;;;;;;;21.70;8.40;;;4.60;99.90;;;;;;5063721;27;20522;-60
2023/01/28 02:05:27;;;;;;;21.37;6.53;;;4.60;99.90;;;;;;5082506;28;20512;-59
2023/01/28 02:08:19;;;;;;;39.27;12.03;;;4.50;99.90;;;;;;5059738;28;21000;-60
2023/01/28 02:10:45;;;;;;;28.90;9.73;;;4.60;99.90;;;;;;5059071;28;21034;-59
2023/01/28 02:13:14;;;;;;;19.23;6.53;;;4.60;99.90;;;;;;5047425;28;20471;-59
2023/01/28 02:15:41;;;;;;;23.77;6.60;;;4.60;99.90;;;;;;5085339;28;20513;-59
2023/01/28 02:18:09;;;;;;;18.50;6.70;;;4.50;99.90;;;;;;5081212;27;20486;-59
2023/01/28 02:20:43;;;;;;;22.67;7.10;;;;;;;;;;5056571;28;20479;-59
2023/01/28 02:23:32;;;;;;;38.07;7.93;;;4.50;99.90;;;;;;5054444;28;20645;-59
2023/01/28 02:26:19;;;;;;;36.87;10.07;;;4.50;99.90;;;;;;5069102;28;20997;-60
2023/01/28 02:28:51;;;;;;;43.93;12.63;;;4.50;99.90;;;;;;5042276;28;20485;-60
2023/01/28 02:31:23;;;;;;;23.60;8.60;;;4.50;99.90;;;;;;5077309;28;20487;-59
2023/01/28 02:33:53;;;;;;;46.47;12.27;;;;;;;;;;5052090;28;20544;-59
2023/01/28 02:36:24;;;;;;;28.87;7.80;;;;;;;;;;5053038;28;20966;-59
2023/01/28 02:38:54;;;;;;;29.93;11.00;;;4.50;99.90;;;;;;5047873;28;20487;-59
2023/01/28 02:41:25;;;;;;;25.77;8.60;;;4.50;99.90;;;;;;5044843;28;20537;-59
2023/01/28 02:43:53;;;;;;;45.67;13.10;;;4.50;99.90;;;;;;5073044;28;25048;-59
2023/01/28 02:49:19;;;;;;;19.00;7.07;;;;;;;;;;5045349;28;20541;-59
2023/01/28 02:51:53;;;;;;;36.67;12.43;;;;;;;;;;5048283;28;20826;-59
2023/01/28 02:54:31;;;;;;;25.53;8.07;;;4.40;99.90;;;;;;5060637;28;20481;-60
2023/01/28 02:57:08;;;;;;;24.07;7.17;;;4.40;99.90;;;;;;5047291;27;20461;-59
2023/01/28 02:59:42;;;;;;;34.93;8.57;;;4.20;99.90;;;;;;5078556;27;20477;-59
2023/01/28 03:02:12;;;;;;;32.53;8.67;;;;;;;;;;5059274;28;20483;-59
2023/01/28 03:04:45;;;;;;;28.30;9.13;;;4.30;99.90;;;;;;5050680;28;20569;-59
2023/01/28 03:07:14;;;;;;;23.33;7.37;;;4.40;99.90;;;;;;5059785;28;21054;-59
2023/01/28 03:09:42;;;;;;;24.70;8.53;;;;;;;;;;5063214;28;20485;-59
2023/01/28 03:37:21;;;;;;;24.57;8.20;;;4.50;99.90;;;;;;5034338;28;21154;-59
2023/01/28 03:39:48;;;;;;;44.53;11.30;;;4.50;99.90;;;;;;5077529;27;20465;-59
2023/01/28 03:42:17;;;;;;;25.63;6.60;;;;;;;;;;5049993;28;20519;-59
2023/01/28 03:44:53;;;;;;;44.63;10.97;;;4.40;99.90;;;;;;5055454;28;20502;-59
2023/01/28 03:47:23;;;;;;;26.40;6.93;;;4.40;99.90;;;;;;5055442;28;20821;-59
2023/01/28 03:49:52;;;;;;;48.43;13.70;;;4.40;99.90;;;;;;5058437;28;20482;-59
2023/01/28 03:52:20;;;;;;;31.60;9.10;;;;;;;;;;5049867;28;20588;-59
2023/01/28 03:54:47;;;;;;;65.13;14.53;;;;;;;;;;5068626;28;20550;-59
2023/01/28 03:57:14;;;;;;;24.87;7.50;;;4.40;99.90;;;;;;5060454;28;20475;-59
2023/01/28 03:59:41;;;;;;;35.97;10.50;;;4.50;99.90;;;;;;5051933;28;20544;-59
2023/01/28 04:02:10;;;;;;;22.50;8.03;;;4.40;99.90;;;;;;5054954;28;20493;-59
2023/01/28 04:04:38;;;;;;;31.73;9.07;;;4.40;99.90;;;;;;5080336;27;20566;-59
2023/01/28 04:07:07;;;;;;;22.37;7.80;;;4.40;99.90;;;;;;5044079;28;20491;-59
2023/01/28 04:09:34;;;;;;;28.10;7.13;;;4.40;99.90;;;;;;5083381;27;20475;-59
2023/01/28 04:12:00;;;;;;;28.13;9.17;;;4.40;99.90;;;;;;5051277;28;20875;-59
2023/01/28 04:14:28;;;;;;;27.03;8.50;;;;;;;;;;5069786;28;20533;-59
2023/01/28 04:16:54;;;;;;;37.63;11.53;;;4.30;99.90;;;;;;5071340;28;20519;-59
2023/01/28 04:19:21;;;;;;;19.30;6.67;;;4.30;99.90;;;;;;5054568;28;20475;-59
2023/01/28 04:21:52;;;;;;;27.53;10.03;;;4.30;99.90;;;;;;5053931;28;20479;-59
2023/01/28 04:24:20;;;;;;;18.63;7.50;;;4.30;99.90;;;;;;5053236;28;20481;-59
2023/01/28 04:26:47;;;;;;;37.97;13.20;;;4.30;99.90;;;;;;5085145;27;20531;-59
2023/01/28 04:29:13;;;;;;;28.23;7.50;;;4.30;99.90;;;;;;5054858;28;20927;-59
2023/01/28 04:31:40;;;;;;;30.10;7.80;;;;;;;;;;5082100;28;20860;-59
2023/01/28 04:34:08;;;;;;;35.90;9.50;;;4.30;99.90;;;;;;5056790;28;21303;-59
2023/01/28 04:36:34;;;;;;;35.10;9.00;;;4.30;99.90;;;;;;5052377;28;20485;-59
2023/01/28 04:39:03;;;;;;;19.53;6.90;;;;;;;;;;5071787;28;20867;-59
2023/01/28 04:41:29;;;;;;;25.10;7.00;;;4.30;99.90;;;;;;5059033;28;21148;-59
2023/01/28 04:43:56;;;;;;;29.23;8.50;;;4.30;99.90;;;;;;5079200;28;20482;-59
2023/01/28 04:46:23;;;;;;;18.20;7.37;;;4.30;99.90;;;;;;5061368;28;20507;-60
2023/01/28 04:48:49;;;;;;;29.80;10.10;;;4.30;99.90;;;;;;5064947;28;20889;-59
2023/01/28 04:51:16;;;;;;;31.93;5.30;;;4.30;99.90;;;;;;5080739;28;21196;-59
2023/01/28 04:53:43;;;;;;;28.07;9.30;;;4.30;99.90;;;;;;5073963;28;20906;-59
2023/01/28 04:56:11;;;;;;;27.83;8.30;;;4.30;99.90;;;;;;5064060;28;21122;-59
2023/01/28 04:58:38;;;;;;;18.83;5.93;;;;;;;;;;5060195;28;20552;-59
2023/01/28 05:01:05;;;;;;;27.13;7.90;;;;;;;;;;5067491;28;20469;-59
2023/01/28 05:03:31;;;;;;;31.67;8.87;;;4.30;99.90;;;;;;5064675;28;20506;-59
2023/01/28 05:05:58;;;;;;;37.87;8.60;;;4.40;99.90;;;;;;5057653;28;20479;-59
2023/01/28 05:08:25;;;;;;;19.50;6.40;;;4.40;99.90;;;;;;5053480;28;20479;-59
2023/01/28 05:10:51;;;;;;;42.23;10.93;;;7.10;99.90;;;;;;5043430;28;20549;-59
2023/01/28 05:13:19;;;;;;;27.90;7.77;;;4.40;99.90;;;;;;5079046;28;20541;-59
2023/01/28 05:15:51;;;;;;;55.23;15.30;;;4.40;99.90;;;;;;5065030;28;20844;-58
2023/01/28 05:18:18;;;;;;;28.33;8.57;;;4.40;99.90;;;;;;5065531;28;20483;-58
2023/01/28 05:20:45;;;;;;;35.07;9.47;;;;;;;;;;5060958;28;20497;-59
2023/01/28 05:23:12;;;;;;;25.93;7.20;;;;;;;;;;5065736;28;20507;-58
2023/01/28 05:25:39;;;;;;;21.47;7.30;;;;;;;;;;5078122;28;21531;-59
2023/01/28 05:28:07;;;;;;;28.47;8.00;;;;;;;;;;5077985;28;20480;-59
2023/01/28 05:30:35;;;;;;;43.57;9.50;;;;;;;;;;5075106;28;20483;-59
2023/01/28 05:33:02;;;;;;;35.03;8.90;;;;;;;;;;5071701;28;20481;-59
2023/01/28 05:35:29;;;;;;;37.77;8.70;;;;;;;;;;5053631;28;20483;-59
2023/01/28 05:37:56;;;;;;;37.40;10.50;;;;;;;;;;5041581;28;20993;-58
2023/01/28 05:40:23;;;;;;;20.37;6.93;;;4.30;99.90;;;;;;5075128;28;20479;-58
2023/01/28 05:42:49;;;;;;;41.17;11.70;;;4.30;99.90;;;;;;5048732;28;20484;-59
2023/01/28 05:45:16;;;;;;;30.93;8.33;;;4.30;99.90;;;;;;5058181;28;20608;-59
2023/01/28 05:47:44;;;;;;;31.67;8.90;;;4.40;99.90;;;;;;5071400;28;20478;-59
2023/01/28 05:50:13;;;;;;;27.93;7.40;;;4.30;99.90;;;;;;5067707;28;20474;-59
2023/01/28 05:52:40;;;;;;;25.53;8.20;;;4.30;99.90;;;;;;5077644;28;20496;-59
2023/01/28 05:55:08;;;;;;;26.10;7.47;;;4.30;99.90;;;;;;5065524;28;20818;-59
2023/01/28 05:57:34;;;;;;;33.77;8.93;;;4.30;99.90;;;;;;5064638;28;20478;-59
2023/01/28 06:00:01;;;;;;;27.10;8.07;;;;;;;;;;5069258;28;20706;-59
2023/01/28 06:02:28;;;;;;;28.53;6.33;;;;;;;;;;5050961;28;20541;-59
2023/01/28 06:04:56;;;;;;;32.37;7.07;;;4.20;99.90;;;;;;5055497;28;21116;-59
2023/01/28 06:07:23;;;;;;;22.33;6.73;;;4.20;99.90;;;;;;5053639;28;20483;-59
2023/01/28 06:09:50;;;;;;;43.20;12.13;;;4.10;99.90;;;;;;5057117;28;20478;-59
2023/01/28 06:12:17;;;;;;;17.43;6.00;;;4.10;99.90;;;;;;5066945;28;20470;-59
2023/01/28 06:14:44;;;;;;;39.33;10.50;;;4.10;99.90;;;;;;5075752;28;20478;-59
2023/01/28 06:17:10;;;;;;;30.57;6.87;;;4.10;99.90;;;;;;5058821;28;20525;-59
2023/01/28 06:19:37;;;;;;;25.10;6.40;;;4.10;99.90;;;;;;5071743;28;20527;-59
2023/01/28 06:22:05;;;;;;;28.97;7.07;;;4.00;99.90;;;;;;5057101;28;20554;-59
2023/01/28 06:24:32;;;;;;;21.83;5.30;;;;;;;;;;5060289;28;20473;-59
2023/01/28 06:26:59;;;;;;;32.73;7.27;;;;;;;;;;5061233;28;20503;-59
2023/01/28 06:29:26;;;;;;;26.73;6.50;;;4.10;99.90;;;;;;5071424;28;20475;-59
2023/01/28 06:31:53;;;;;;;63.07;10.33;;;4.00;99.90;;;;;;5053104;28;20491;-59
2023/01/28 06:34:20;;;;;;;36.03;7.70;;;4.10;99.90;;;;;;5071159;28;20473;-59
2023/01/28 06:36:47;;;;;;;96.33;15.20;;;;;;;;;;5053666;28;20479;-59
2023/01/28 06:39:15;;;;;;;29.80;8.03;;;4.00;99.90;;;;;;5075312;28;20852;-59
2023/01/28 06:41:41;;;;;;;43.93;9.47;;;4.10;99.90;;;;;;5050346;28;20506;-59
2023/01/28 06:44:08;;;;;;;29.83;6.40;;;4.10;99.90;;;;;;5052339;28;20913;-59
2023/01/28 06:46:35;;;;;;;35.93;9.17;;;4.10;99.90;;;;;;5051154;28;20533;-59
2023/01/28 06:49:02;;;;;;;30.07;7.43;;;4.10;99.90;;;;;;5056798;28;20477;-59
2023/01/28 06:51:29;;;;;;;18.80;7.50;;;;;;;;;;5062619;28;20729;-59
2023/01/28 06:53:56;;;;;;;28.90;8.07;;;;;;;;;;5080783;28;20463;-58
2023/01/28 06:56:24;;;;;;;21.93;5.70;;;4.10;99.90;;;;;;5048240;28;20494;-59
2023/01/28 06:58:51;;;;;;;48.97;12.83;;;4.10;99.90;;;;;;5054783;28;20738;-59
2023/01/28 07:01:18;;;;;;;28.47;5.97;;;;;;;;;;5073204;28;20478;-59
2023/01/28 07:03:45;;;;;;;38.27;10.57;;;4.00;99.90;;;;;;5062526;28;20576;-59
2023/01/28 07:06:11;;;;;;;21.03;5.90;;;4.00;99.90;;;;;;5051696;28;20492;-59
2023/01/28 07:08:38;;;;;;;32.67;10.10;;;4.00;99.90;;;;;;5068510;28;20479;-59
2023/01/28 07:11:05;;;;;;;29.00;6.60;;;;;;;;;;5053203;28;20490;-59
2023/01/28 07:13:34;;;;;;;35.33;7.20;;;4.00;99.90;;;;;;5052378;28;20541;-59
2023/01/28 07:16:01;;;;;;;30.47;6.87;;;;;;;;;;5052039;28;20481;-59
2023/01/28 07:18:28;;;;;;;36.93;8.60;;;;;;;;;;5075650;28;20490;-59
2023/01/28 07:20:55;;;;;;;49.80;12.63;;;4.00;99.90;;;;;;5061201;28;20544;-59
2023/01/28 07:23:22;;;;;;;25.00;6.10;;;;;;;;;;5068133;28;20470;-59
2023/01/28 07:25:49;;;;;;;42.40;9.60;;;4.00;99.90;;;;;;5060957;28;20549;-59
2023/01/28 07:28:20;;;;;;;26.00;6.37;;;4.00;99.90;;;;;;5061745;28;20488;-59
2023/01/28 07:30:49;;;;;;;43.53;9.50;;;1.30;98.90;;;;;;5070267;28;20624;-59
2023/01/28 07:33:15;;;;;;;19.73;5.67;;;4.00;99.90;;;;;;5056062;28;20528;-59
2023/01/28 07:35:42;;;;;;;36.13;9.83;;;3.90;99.90;;;;;;5060044;28;20529;-59
2023/01/28 07:38:09;;;;;;;21.87;5.30;;;3.90;99.90;;;;;;5072631;28;20511;-59
2023/01/28 07:40:35;;;;;;;26.00;5.73;;;3.90;99.90;;;;;;5047332;28;20510;-59
2023/01/28 07:43:02;;;;;;;30.97;7.67;;;3.90;99.90;;;;;;5082476;28;20533;-59
2023/01/28 07:45:30;;;;;;;20.83;6.43;;;;;;;;;;5049202;28;20816;-59
2023/01/28 07:48:01;;;;;;;34.57;7.97;;;4.00;99.90;;;;;;5064352;28;20479;-59
2023/01/28 07:50:28;;;;;;;32.90;8.73;;;;;;;;;;5048565;28;20480;-59
2023/01/28 07:52:55;;;;;;;58.13;10.13;;;4.00;99.90;;;;;;5045234;28;20510;-59
2023/01/28 07:55:22;;;;;;;22.80;5.77;;;4.10;99.90;;;;;;5061856;28;20892;-59
2023/01/28 07:57:50;;;;;;;56.30;10.83;;;;;;;;;;5067118;28;20470;-59
2023/01/28 08:00:17;;;;;;;32.10;8.00;;;;;;;;;;5066082;28;20479;-59
2023/01/28 08:02:46;;;;;;;39.40;8.97;;;4.00;99.90;;;;;;5056157;28;20523;-59
2023/01/28 08:05:16;;;;;;;20.07;5.53;;;4.10;99.90;;;;;;5060188;28;20991;-59
2023/01/28 08:07:43;;;;;;;31.93;8.50;;;4.00;99.90;;;;;;5068611;28;20490;-59
2023/01/28 08:10:11;;;;;;;38.53;9.90;;;4.10;99.90;;;;;;5055840;28;20486;-59
2023/01/28 08:12:37;;;;;;;29.43;7.20;;;4.00;99.90;;;;;;5059698;28;21096;-59
2023/01/28 08:15:06;;;;;;;31.00;6.77;;;4.10;99.90;;;;;;5065434;28;20511;-59
2023/01/28 08:17:32;;;;;;;41.43;8.77;;;4.20;99.90;;;;;;5055075;28;20487;-59
2023/01/28 08:19:59;;;;;;;33.93;9.10;;;;;;;;;;5050951;28;20964;-59
2023/01/28 08:22:28;;;;;;;38.87;9.00;;;4.10;99.90;;;;;;5068542;28;20913;-59
2023/01/28 08:24:54;;;;;;;63.63;12.00;;;4.20;99.90;;;;;;5067181;28;20473;-59
2023/01/28 08:27:22;;;;;;;33.63;7.03;;;;;;;;;;5083523;28;20465;-59
2023/01/28 08:29:49;;;;;;;87.57;13.63;;;;;;;;;;5059814;28;20469;-59
2023/01/28 08:32:16;;;;;;;30.80;6.90;;;4.20;99.90;;;;;;5068328;28;20489;-59
2023/01/28 08:34:42;;;;;;;40.87;10.33;;;4.30;99.90;;;;;;5054420;28;20861;-59
2023/01/28 08:37:09;;;;;;;30.20;5.57;;;4.20;99.80;;;;;;5059186;28;20905;-59
2023/01/28 08:39:37;;;;;;;33.83;7.03;;;4.20;99.90;;;;;;5061670;28;20794;-58
2023/01/28 08:42:05;;;;;;;28.20;6.33;;;4.30;99.90;;;;;;5074607;28;20868;-59
2023/01/28 08:44:32;;;;;;;33.33;7.50;;;4.30;99.90;;;;;;5057089;28;20484;-59
2023/01/28 08:46:59;;;;;;;59.33;8.30;;;4.20;99.80;;;;;;5073035;28;20515;-59
2023/01/28 08:49:26;;;;;;;65.33;8.37;;;;;;;;;;5059090;28;20469;-59
2023/01/28 08:51:54;;;;;;;49.63;9.63;;;4.20;99.90;;;;;;5066489;28;20512;-60
2023/01/28 08:54:21;;;;;;;28.07;6.03;;;4.20;99.70;;;;;;5065260;28;20512;-59
2023/01/28 08:56:50;;;;;;;31.27;9.10;;;4.30;99.90;;;;;;5079926;28;20806;-59
2023/01/28 08:59:17;;;;;;;16.93;5.07;;;4.30;99.90;;;;;;5073673;28;20477;-59
2023/01/28 09:01:44;;;;;;;29.43;9.10;;;4.30;99.70;;;;;;5046406;28;20740;-59
2023/01/28 09:04:10;;;;;;;27.43;7.03;;;4.40;99.90;;;;;;5048744;28;20640;-59
2023/01/28 09:06:37;;;;;;;40.50;10.70;;;4.40;99.60;;;;;;5055068;28;20479;-59
2023/01/28 09:09:04;;;;;;;24.13;7.77;;;4.40;99.70;;;;;;5049594;28;20487;-59
2023/01/28 09:11:31;;;;;;;28.17;8.37;;;;;;;;;;5067033;28;20478;-59
2023/01/28 09:13:59;;;;;;;32.53;7.23;;;4.50;99.40;;;;;;5064508;28;20519;-59
2023/01/28 09:16:26;;;;;;;39.30;9.70;;;4.50;99.50;;;;;;5062345;28;20560;-59
2023/01/28 09:18:53;;;;;;;51.93;10.63;;;;;;;;;;5043847;28;20478;-59
2023/01/28 09:21:21;;;;;;;30.27;6.47;;;;;;;;;;5054388;28;20479;-59
2023/01/28 09:23:48;;;;;;;42.10;11.60;;;4.60;99.60;;;;;;5064735;28;20878;-59
2023/01/28 09:26:14;;;;;;;24.10;6.00;;;4.60;99.30;;;;;;5064077;28;20510;-59
2023/01/28 09:28:41;;;;;;;26.27;7.97;;;4.60;99.50;;;;;;5051923;28;21043;-59
2023/01/28 09:31:11;;;;;;;35.87;8.07;;;;;;;;;;5043599;28;21139;-59
2023/01/28 09:33:38;;;;;;;39.37;9.10;;;;;;;;;;5067599;28;21009;-59
2023/01/28 09:36:07;;;;;;;25.07;7.33;;;;;;;;;;5060943;28;20493;-59
2023/01/28 09:38:35;;;;;;;28.93;7.10;;;;;;;;;;5071182;28;20489;-59
2023/01/28 09:41:08;;;;;;;27.40;7.43;;;4.70;98.90;;;;;;5071187;28;21113;-59
2023/01/28 09:43:58;;;;;;;29.13;7.70;;;4.90;99.30;;;;;;5069872;28;20562;-59
2023/01/28 09:46:31;;;;;;;34.53;8.60;;;4.80;99.10;;;;;;5041479;28;20597;-59
2023/01/28 09:49:00;;;;;;;39.27;8.60;;;;;;;;;;5076176;28;21000;-59
2023/01/28 09:51:34;;;;;;;42.87;7.60;;;4.80;99.20;;;;;;5067519;28;20574;-59
2023/01/28 09:54:04;;;;;;;38.03;7.27;;;;;;;;;;5071304;28;20490;-59
2023/01/28 09:56:32;;;;;;;52.63;12.07;;;;;;;;;;5055850;28;20849;-59
2023/01/28 09:59:06;;;;;;;31.83;7.00;;;4.90;99.20;;;;;;5074832;28;20894;-59
2023/01/28 10:01:43;;;;;;;32.50;8.07;;;4.90;99.10;;;;;;5046523;28;20855;-58
2023/01/28 10:04:22;;;;;;;41.70;6.83;;;4.90;99.10;;;;;;5058002;28;20503;-59
2023/01/28 10:06:58;;;;;;;42.63;11.80;;;4.80;98.80;;;;;;5055749;28;20490;-59
2023/01/28 10:09:35;;;;;;;39.83;7.20;;;4.90;99.10;;;;;;5069910;28;20555;-59
2023/01/28 10:12:13;;;;;;;33.17;8.43;;;4.90;99.10;;;;;;5054785;28;20616;-59
2023/01/28 10:14:53;;;;;;;24.93;7.63;;;4.90;99.20;;;;;;5068920;28;20585;-59
2023/01/28 10:17:26;;;;;;;32.03;7.17;;;4.90;99.10;;;;;;5051364;28;20929;-59
2023/01/28 10:19:57;;;;;;;39.10;9.60;;;;;;;;;;5075083;28;20481;-59
2023/01/28 10:22:30;;;;;;;53.60;9.37;;;4.90;99.10;;;;;;5050777;28;20574;-59
2023/01/28 10:25:00;;;;;;;57.60;11.43;;;;;;;;;;5041336;28;20920;-60
2023/01/28 10:27:29;;;;;;;38.07;7.70;;;;;;;;;;5039985;28;20957;-59
2023/01/28 10:29:58;;;;;;;88.60;11.17;;;4.90;99.20;;;;;;5065256;28;20489;-60
2023/01/28 10:32:30;;;;;;;107.23;13.20;;;;;;;;;;5061364;28;20466;-60
2023/01/28 10:34:58;;;;;;;94.70;13.90;;;;;;;;;;5082152;28;20479;-60
2023/01/28 10:37:26;;;;;;;50.00;9.07;;;4.80;98.90;;;;;;5052735;28;20482;-60
2023/01/28 10:39:56;;;;;;;67.60;11.10;;;4.70;98.80;;;;;;5080682;28;20479;-60
2023/01/28 10:42:29;;;;;;;20.40;6.53;;;4.80;99.10;;;;;;5049017;28;20545;-60
2023/01/28 10:44:58;;;;;;;38.77;10.07;;;;;;;;;;5033762;28;21049;-59
2023/01/28 10:47:33;;;;;;;30.43;7.40;;;4.70;99.00;;;;;;5052984;28;20927;-59
2023/01/28 10:50:01;;;;;;;20.77;6.50;;;4.70;98.80;;;;;;5061049;28;20515;-60
2023/01/28 10:52:27;;;;;;;32.90;8.27;;;4.70;99.00;;;;;;5055959;28;20477;-60
2023/01/28 10:55:01;;;;;;;32.83;11.07;;;4.70;98.90;;;;;;5072928;28;20484;-59
2023/01/28 10:57:28;;;;;;;24.73;7.83;;;6.30;99.70;;;;;;5044099;28;20487;-60
2023/01/28 10:59:54;;;;;;;35.27;8.23;;;4.70;99.00;;;;;;5077092;28;20475;-60
2023/01/28 11:02:26;;;;;;;31.30;6.80;;;;;;;;;;5038110;28;20523;-60
2023/01/28 11:05:04;;;;;;;36.93;12.57;;;4.70;99.10;;;;;;5070256;28;20547;-60
2023/01/28 11:07:32;;;;;;;26.97;8.30;;;;;;;;;;5052476;28;20475;-60
2023/01/28 11:09:58;;;;;;;23.33;6.50;;;4.80;99.00;;;;;;5056911;28;20483;-60
2023/01/28 11:12:27;;;;;;;28.87;6.00;;;;;;;;;;5065958;28;21077;-60
2023/01/28 11:14:56;;;;;;;39.17;12.23;;;4.70;98.80;;;;;;5055609;28;20568;-59
2023/01/28 11:17:25;;;;;;;14.70;5.23;;;4.70;99.20;;;;;;5071983;28;20479;-59
2023/01/28 11:19:53;;;;;;;27.23;7.07;;;;;;;;;;5057597;28;20515;-59
2023/01/28 11:22:29;;;;;;;20.23;4.83;;;4.80;98.90;;;;;;5067367;28;20478;-59
2023/01/28 11:25:29;;;;;;;34.57;9.73;;;4.90;99.10;;;;;;5048205;28;20515;-59
2023/01/28 11:27:56;;;;;;;35.47;8.60;;;4.90;98.80;;;;;;5051585;28;20474;-59
2023/01/28 11:30:26;;;;;;;25.20;6.37;;;5.00;98.90;;;;;;5087103;28;20471;-59
2023/01/28 11:33:04;;;;;;;46.80;10.67;;;4.90;98.30;;;;;;5049887;28;20565;-60
2023/01/28 11:35:32;;;;;;;53.07;9.10;;;;;;;;;;5050769;28;20487;-59
2023/01/28 11:38:01;;;;;;;41.03;9.10;;;5.00;98.60;;;;;;5066115;28;20466;-59
2023/01/28 11:40:28;;;;;;;37.20;8.67;;;5.10;98.70;;;;;;5072267;28;20482;-59
2023/01/28 11:42:57;;;;;;;54.30;11.50;;;5.00;98.30;;;;;;5079290;28;20487;-60
2023/01/28 11:45:26;;;;;;;33.93;7.50;;;;;;;;;;5068732;28;20505;-59
2023/01/28 11:48:08;;;;;;;34.07;8.00;;;;;;;;;;5047305;28;20573;-59
2023/01/28 11:50:45;;;;;;;23.97;7.70;;;4.90;98.60;;;;;;5062607;28;20475;-59
2023/01/28 11:53:40;;;;;;;15.57;5.30;;;4.90;98.30;;;;;;5083183;28;20516;-60
2023/01/28 11:56:22;;;;;;;16.77;6.57;;;5.00;98.50;;;;;;5037350;28;20478;-60
2023/01/28 11:58:53;;;;;;;35.33;11.40;;;;;;;;;;5058134;28;20795;-60
2023/01/28 12:01:28;;;;;;;21.87;5.73;;;4.90;98.30;;;;;;5057029;28;20486;-59
2023/01/28 12:04:20;;;;;;;30.63;8.30;;;4.90;98.20;;;;;;5064522;28;20904;-60
2023/01/28 12:07:02;;;;;;;42.37;13.17;;;4.90;98.40;;;;;;5056693;28;20523;-59
2023/01/28 12:09:38;;;;;;;24.23;7.23;;;4.90;98.60;;;;;;5077736;28;20664;-59
2023/01/28 12:12:20;;;;;;;36.37;8.93;;;4.90;98.40;;;;;;5060854;28;20478;-60
2023/01/28 12:15:23;;;;;;;46.97;12.53;;;4.90;98.30;;;;;;5059394;28;20858;-59
2023/01/28 12:17:59;;;;;;;57.97;11.80;;;;;;;;;;5068155;28;20541;-59
2023/01/28 12:20:31;;;;;;;38.83;8.83;;;5.00;98.50;;;;;;5047556;28;20468;-60
2023/01/28 12:23:24;;;;;;;54.30;11.17;;;5.10;98.40;;;;;;5045853;28;20475;-60
2023/01/28 12:26:04;;;;;;;50.80;13.80;;;5.20;98.30;;;;;;5060551;28;20476;-59
2023/01/28 12:28:38;;;;;;;31.00;8.97;;;;;;;;;;5059231;28;20712;-59
2023/01/28 12:31:15;;;;;;;25.03;7.30;;;5.00;97.70;;;;;;5068604;28;20467;-60
2023/01/28 12:34:01;;;;;;;37.43;10.13;;;5.10;98.10;;;;;;5080837;28;21218;-60
2023/01/28 12:36:41;;;;;;;48.17;9.77;;;5.00;97.80;;;;;;5058003;28;20489;-59
2023/01/28 12:39:14;;;;;;;36.27;7.50;;;;;;;;;;5076237;27;20513;-59
2023/01/28 12:41:46;;;;;;;44.73;8.00;;;5.00;97.80;;;;;;5073970;28;20479;-59
2023/01/28 12:44:17;;;;;;;31.13;8.50;;;5.10;98.00;;;;;;5038463;28;21007;-59
2023/01/28 12:46:46;;;;;;;26.13;9.57;;;;;;;;;;5080098;28;20540;-60
2023/01/28 12:49:18;;;;;;;23.80;6.43;;;5.00;97.90;;;;;;5075084;28;20473;-60
2023/01/28 12:52:01;;;;;;;41.57;12.17;;;5.10;98.00;;;;;;5048925;28;20490;-59
2023/01/28 12:54:35;;;;;;;22.97;7.57;;;5.00;97.80;;;;;;5085326;28;20522;-59
2023/01/28 12:57:04;;;;;;;24.87;8.57;;;5.00;97.80;;;;;;5038342;28;20685;-60
2023/01/28 12:59:33;;;;;;;20.40;7.07;;;;;;;;;;5067211;28;20555;-59
2023/01/28 13:02:21;;;;;;;34.23;8.97;;;4.90;97.90;;;;;;5055181;28;20474;-59
2023/01/28 13:04:54;;;;;;;37.43;8.60;;;4.90;97.80;;;;;;5051388;28;20975;-59
2023/01/28 13:07:26;;;;;;;20.80;6.07;;;4.90;97.90;;;;;;5040180;28;20485;-60
2023/01/28 13:10:03;;;;;;;50.70;11.67;;;5.00;97.90;;;;;;5070377;28;20511;-60
2023/01/28 13:12:32;;;;;;;36.47;8.57;;;;;;;;;;5044643;28;20554;-59
2023/01/28 13:15:00;;;;;;;36.33;7.00;;;4.90;97.70;;;;;;5080719;28;20941;-60
2023/01/28 13:17:29;;;;;;;30.73;6.50;;;4.90;97.80;;;;;;5044995;28;21018;-59
2023/01/28 13:19:57;;;;;;;51.60;10.30;;;4.90;97.70;;;;;;5075929;28;20866;-60
2023/01/28 13:22:30;;;;;;;47.67;11.47;;;4.80;97.80;;;;;;5054686;28;20544;-59
2023/01/28 13:24:58;;;;;;;45.53;9.70;;;4.90;97.50;;;;;;5061259;28;20519;-59
2023/01/28 13:27:27;;;;;;;35.53;9.27;;;4.90;97.60;;;;;;5066346;28;20473;-59
2023/01/28 13:30:05;;;;;;;76.37;12.83;;;4.90;97.70;;;;;;5077753;28;20544;-59
2023/01/28 13:32:37;;;;;;;43.97;8.70;;;4.80;97.70;;;;;;5075404;28;20504;-59
2023/01/28 13:35:06;;;;;;;56.73;9.73;;;4.80;97.80;;;;;;5035882;28;20486;-59
2023/01/28 13:37:36;;;;;;;67.67;11.17;;;4.80;97.60;;;;;;5066168;28;21069;-59
2023/01/28 13:40:09;;;;;;;47.80;8.60;;;4.70;97.50;;;;;;5042499;28;20480;-59
2023/01/28 13:42:36;;;;;;;33.27;8.43;;;4.70;97.70;;;;;;5046347;28;20709;-60
2023/01/28 13:45:22;;;;;;;38.93;8.77;;;4.70;97.60;;;;;;5060875;28;20848;-60
2023/01/28 13:47:52;;;;;;;42.37;9.17;;;4.70;97.70;;;;;;5054852;28;20485;-60
2023/01/28 13:50:22;;;;;;;31.17;8.03;;;4.70;97.90;;;;;;5047759;28;20473;-59
2023/01/28 13:52:52;;;;;;;37.83;10.90;;;;;;;;;;5076745;27;20483;-60